City of Colorado Springs Municipal Airport Colorado Springs US
ICAO: KCOS
IATA: COS
Category: Large
Scheduled Services: Yes

Elevation: 6187 ft
TransAlt. 18000 ft.

Airport Communications:
SPRINGS APP:118.5
ATIS:125
CLNC DEL:134.45
CTAF:124.15
SPRINGS DEP:124
GND:121.7
AFRC OPS:29.84
PMSV PETERSON METRO:34.92
PETERSON PTD:122.85
DENVER RDO:122.25
SPRINGS TWR:119.9
UNICOM:122.95

KCOS Zoom In..

Runways:

(A) RW 13 length 8269 ft width 150 ft
---- / hdg 126

(B) RW 17L length 13501 ft width 150 ft
ILS 109.10 / hdg 171

(C) RW 17R length 11022 ft width 150 ft
---- / hdg 171

(D) RW 31 length 8269 ft width 150 ft
---- / hdg 306

(E) RW 35L length 11022 ft width 150 ft
ILS 109.90 / hdg 351

(F) RW 35R length 13501 ft width 150 ft
ILS 109.10 / hdg 351

Location; KCOS
Day. 24 / Time. 12.54 Zulu
* Altimeter: 30.17
* Temperature: 17° c. 62.6°f.
* Wind from: 320° Speed 07 kn.
Dewpoint: 06° c.
Visibility: 10 Statute Miles.
Clouds: Broken 15000 ft.

KCOS 241254Z 32007KT 10SM BKN150 17/06 A3017 RMK AO2 SLP132 T01670056


Wind From 320°
Speed 07 kn.

 
 
jpsmedia.com for Web Design SOUNDCLOUD worldairports.se 2018   terms of use